createdAt,value
2018-12-24T00:00:40.607Z,37.04
2018-12-24T00:03:13.238Z,37.03
2018-12-24T00:05:45.905Z,37.03
2018-12-24T00:08:17.978Z,37.00
2018-12-24T00:10:50.612Z,37.04
2018-12-24T00:13:23.304Z,37.01
2018-12-24T00:15:56.058Z,37.01
2018-12-24T00:18:28.502Z,37.04
2018-12-24T00:21:00.963Z,36.99
2018-12-24T00:23:33.726Z,37.05
2018-12-24T00:26:04.853Z,36.98
2018-12-24T00:28:37.280Z,36.96
2018-12-24T00:31:10.058Z,37.01
2018-12-24T00:33:44.055Z,37.01
2018-12-24T00:36:17.298Z,37.01
2018-12-24T00:38:50.063Z,37.02
2018-12-24T00:41:23.020Z,37.01
2018-12-24T00:43:57.831Z,37.02
2018-12-24T00:46:30.055Z,36.98
2018-12-24T00:49:02.890Z,37.00
2018-12-24T00:51:35.371Z,36.99
2018-12-24T00:54:08.064Z,37.04
2018-12-24T00:56:41.050Z,37.03
2018-12-24T00:59:14.063Z,37.04
2018-12-24T01:01:48.904Z,37.09
2018-12-24T01:04:21.127Z,37.11
2018-12-24T01:06:54.031Z,37.13
2018-12-24T01:09:27.009Z,37.10
2018-12-24T01:11:59.409Z,37.11
2018-12-24T01:14:32.067Z,37.10
2018-12-24T01:17:04.991Z,37.10
2018-12-24T01:19:38.307Z,37.15
2018-12-24T01:22:11.067Z,37.16
2018-12-24T01:24:45.875Z,37.14
2018-12-24T01:27:23.480Z,37.19
2018-12-24T01:29:56.357Z,37.22
2018-12-24T01:32:29.055Z,37.25
2018-12-24T01:35:02.294Z,37.28
2018-12-24T01:37:35.425Z,37.26
2018-12-24T01:40:07.994Z,37.22
2018-12-24T01:42:40.440Z,37.22
2018-12-24T01:45:13.010Z,37.17
2018-12-24T01:47:46.046Z,37.23
2018-12-24T01:50:18.845Z,37.23
2018-12-24T01:52:51.386Z,37.26
2018-12-24T01:55:24.061Z,37.26
2018-12-24T01:57:56.991Z,37.29
2018-12-24T02:00:29.392Z,37.28
2018-12-24T02:03:02.304Z,37.28
2018-12-24T02:05:35.130Z,37.29
2018-12-24T02:08:08.014Z,37.29
2018-12-24T02:10:41.315Z,37.29
2018-12-24T02:13:14.028Z,37.30
2018-12-24T02:15:46.902Z,37.29
2018-12-24T02:18:19.274Z,37.33
2018-12-24T02:20:52.118Z,37.32
2018-12-24T02:23:25.063Z,37.36
2018-12-24T02:25:57.898Z,37.31
2018-12-24T02:28:30.402Z,37.28
2018-12-24T02:31:03.284Z,37.28
2018-12-24T02:33:36.384Z,37.26
2018-12-24T02:36:09.076Z,37.29
2018-12-24T02:38:42.067Z,37.31
2018-12-24T02:41:15.025Z,37.29
2018-12-24T02:43:47.459Z,37.33
2018-12-24T02:46:20.465Z,37.38
2018-12-24T02:48:53.035Z,37.35
2018-12-24T02:51:26.311Z,37.38
2018-12-24T02:54:39.324Z,37.00
2018-12-24T02:57:11.630Z,37.17
2018-12-24T02:59:43.510Z,37.25
2018-12-24T03:02:15.791Z,37.25
2018-12-24T03:04:47.638Z,37.30
2018-12-24T03:07:19.366Z,37.28
2018-12-24T03:09:51.264Z,37.28
2018-12-24T03:12:23.065Z,37.31
2018-12-24T03:14:54.802Z,37.31
2018-12-24T03:17:26.763Z,37.28
2018-12-24T03:19:57.494Z,37.33
2018-12-24T03:22:29.315Z,37.31
2018-12-24T03:25:00.874Z,37.29
2018-12-24T03:27:32.767Z,37.25
2018-12-24T03:30:04.719Z,37.28
2018-12-24T03:32:35.469Z,37.25
2018-12-24T03:35:06.632Z,37.26
2018-12-24T03:37:37.845Z,37.29
2018-12-24T03:40:09.879Z,37.29
2018-12-24T03:42:41.833Z,37.27
2018-12-24T03:45:13.706Z,37.32
2018-12-24T03:47:44.671Z,37.30
2018-12-24T03:50:15.647Z,37.29
2018-12-24T03:52:47.774Z,37.30
2018-12-24T03:55:18.460Z,37.30
2018-12-24T03:57:50.313Z,37.21
2018-12-24T04:00:22.020Z,37.25
2018-12-24T04:02:53.757Z,37.26
2018-12-24T04:05:25.745Z,37.27
2018-12-24T04:07:56.481Z,37.24
2018-12-24T04:10:28.260Z,37.30
2018-12-24T04:13:00.010Z,37.31
2018-12-24T04:15:31.780Z,37.31
2018-12-24T04:18:03.777Z,37.32
2018-12-24T04:20:34.594Z,37.30
2018-12-24T04:23:06.392Z,37.17
2018-12-24T04:25:42.346Z,37.17
2018-12-24T04:28:14.585Z,37.22
2018-12-24T04:30:46.366Z,37.09
2018-12-24T04:33:18.020Z,37.09
2018-12-24T04:38:21.302Z,37.03
2018-12-24T04:40:53.298Z,37.05
2018-12-24T04:43:32.052Z,37.00
2018-12-24T04:45:58.804Z,37.04
2018-12-24T04:48:30.771Z,37.07
2018-12-24T04:51:01.629Z,37.05
2018-12-24T04:53:33.802Z,37.00
2018-12-24T04:56:05.891Z,37.00
2018-12-24T04:58:37.981Z,37.04
2018-12-24T05:01:09.788Z,37.06
2018-12-24T05:03:40.617Z,37.06
2018-12-24T05:06:12.587Z,36.96
2018-12-24T05:08:44.415Z,37.04
2018-12-24T05:11:16.314Z,37.04
2018-12-24T05:13:48.013Z,37.06
2018-12-24T05:16:19.803Z,37.02
2018-12-24T05:18:50.848Z,37.02
2018-12-24T05:21:22.843Z,36.91
2018-12-24T05:23:54.770Z,36.66
2018-12-24T05:26:25.488Z,36.83
2018-12-24T05:28:57.360Z,36.78
2018-12-24T05:31:29.650Z,36.79
2018-12-24T05:34:01.840Z,36.73
2018-12-24T05:36:33.815Z,36.73
2018-12-24T05:39:07.413Z,36.92
2018-12-24T05:41:39.364Z,36.99
2018-12-24T05:44:11.312Z,37.01
2018-12-24T05:46:43.308Z,36.98
2018-12-24T05:49:14.963Z,37.13
2018-12-24T05:51:46.763Z,37.11
2018-12-24T05:54:17.510Z,37.22
2018-12-24T05:56:49.304Z,37.06
2018-12-24T05:59:21.302Z,37.09
2018-12-24T06:01:53.308Z,37.01
2018-12-24T06:04:24.991Z,37.07
2018-12-24T06:09:27.410Z,36.90
2018-12-24T06:11:59.127Z,37.06
2018-12-24T06:14:31.514Z,37.03
2018-12-24T06:17:03.784Z,37.03
2018-12-24T06:19:35.407Z,37.03
2018-12-24T06:22:07.353Z,37.06
2018-12-24T06:24:39.378Z,37.08
2018-12-24T06:27:11.330Z,37.02
2018-12-24T06:29:44.377Z,36.96
2018-12-24T06:32:16.308Z,36.97
2018-12-24T06:34:47.897Z,37.08
2018-12-24T06:37:19.842Z,37.17
2018-12-24T06:39:51.596Z,37.27
2018-12-24T06:42:23.761Z,37.33
2018-12-24T06:44:54.645Z,37.33
2018-12-24T06:47:25.946Z,37.30
2018-12-24T06:49:57.436Z,37.23
2018-12-24T06:52:29.346Z,37.12
2018-12-24T06:55:01.411Z,37.17
2018-12-24T06:57:33.425Z,37.22
2018-12-24T07:00:05.318Z,37.17
2018-12-24T07:02:37.383Z,37.13
2018-12-24T07:05:09.057Z,37.16
2018-12-24T07:07:40.851Z,37.17
2018-12-24T07:10:12.769Z,37.16
2018-12-24T07:12:43.605Z,37.00
2018-12-24T07:15:15.361Z,37.02
2018-12-24T07:17:47.639Z,37.02
2018-12-24T07:20:19.839Z,36.94
2018-12-24T07:22:51.761Z,36.94
2018-12-24T07:25:23.387Z,37.03
2018-12-24T07:27:55.334Z,37.00
2018-12-24T07:30:27.317Z,37.03
2018-12-24T07:33:01.354Z,37.10
2018-12-24T07:35:33.503Z,37.07
2018-12-24T07:38:05.327Z,37.18
2018-12-24T07:40:37.008Z,37.21
2018-12-24T07:43:09.006Z,37.24
2018-12-24T07:45:40.721Z,37.28
2018-12-24T07:48:12.431Z,37.29
2018-12-24T07:50:44.743Z,37.33
2018-12-24T07:53:15.661Z,37.30
2018-12-24T07:55:47.321Z,37.29
2018-12-24T07:58:19.318Z,37.29
2018-12-24T08:00:51.030Z,37.34
2018-12-24T08:03:23.320Z,37.26
2018-12-24T08:05:55.320Z,37.20
2018-12-24T08:08:27.373Z,37.30
2018-12-24T08:10:59.497Z,37.21
2018-12-24T08:13:32.102Z,37.23
2018-12-24T08:16:04.794Z,37.15
2018-12-24T08:18:35.743Z,37.01
2018-12-24T08:21:06.649Z,37.06
2018-12-24T08:23:39.847Z,36.99
2018-12-24T08:26:11.840Z,36.99
2018-12-24T08:28:43.818Z,36.94
2018-12-24T08:31:15.826Z,36.84
2018-12-24T08:33:47.761Z,36.88
2018-12-24T08:36:19.808Z,36.79
2018-12-24T08:38:52.311Z,36.85
2018-12-24T08:41:23.899Z,36.77
2018-12-24T08:43:55.799Z,36.79
2018-12-24T08:46:27.815Z,36.84
2018-12-24T08:48:59.820Z,36.77
2018-12-24T08:51:31.717Z,36.90
2018-12-24T08:54:02.640Z,36.85
2018-12-24T08:56:35.802Z,36.94
2018-12-24T08:59:07.778Z,36.94
2018-12-24T09:01:39.421Z,37.03
2018-12-24T09:04:11.314Z,37.01
2018-12-24T09:06:43.302Z,36.91
2018-12-24T09:09:15.438Z,36.98
2018-12-24T09:11:47.308Z,36.86
2018-12-24T09:14:19.129Z,37.18
2018-12-24T09:16:51.426Z,37.04
2018-12-24T09:19:23.310Z,37.25
2018-12-24T09:21:55.300Z,37.20
2018-12-24T09:24:27.308Z,37.05
2018-12-24T09:26:59.025Z,37.12
2018-12-24T09:29:31.642Z,36.79
2018-12-24T09:32:03.608Z,36.89
2018-12-24T09:34:36.793Z,36.93
2018-12-24T09:37:07.573Z,36.93
2018-12-24T09:39:39.395Z,36.65
2018-12-24T09:42:11.312Z,36.65
2018-12-24T09:44:43.312Z,36.78
2018-12-24T09:47:14.839Z,36.64
2018-12-24T09:49:46.402Z,36.93
2018-12-24T09:52:18.484Z,36.77
2018-12-24T09:54:50.344Z,36.61
2018-12-24T09:57:22.756Z,36.68
2018-12-24T09:59:53.535Z,36.76
2018-12-24T10:02:36.770Z,37.02
2018-12-24T10:05:09.004Z,36.95
2018-12-24T10:07:42.304Z,37.18
2018-12-24T10:10:18.830Z,37.52
2018-12-24T10:12:50.382Z,36.42
2018-12-24T10:15:22.310Z,36.99
2018-12-24T10:17:54.092Z,37.40
2018-12-24T10:20:26.257Z,37.51
2018-12-24T10:22:58.071Z,37.59
2018-12-24T10:25:31.005Z,37.63
2018-12-24T10:28:02.803Z,37.78
2018-12-24T10:30:34.750Z,37.29
2018-12-24T10:33:05.587Z,37.91
2018-12-24T10:35:39.626Z,37.66
2018-12-24T10:38:11.305Z,37.66
2018-12-24T10:41:09.890Z,37.71
2018-12-24T10:43:42.763Z,37.69
2018-12-24T10:46:13.497Z,37.71
2018-12-24T10:48:46.541Z,37.73
2018-12-24T10:51:18.931Z,37.74
2018-12-24T10:53:50.819Z,37.75
2018-12-24T10:56:22.746Z,37.73
2018-12-24T10:58:53.599Z,37.68
2018-12-24T11:01:24.899Z,37.66
2018-12-24T11:03:56.707Z,37.73
2018-12-24T11:06:27.482Z,37.71
2018-12-24T11:08:59.348Z,37.67
2018-12-24T11:11:33.713Z,37.70
2018-12-24T11:14:05.972Z,37.72
2018-12-24T11:16:37.747Z,37.59
2018-12-24T11:19:09.719Z,37.59
2018-12-24T11:21:40.644Z,37.58
2018-12-24T11:24:12.628Z,37.47
2018-12-24T11:26:44.417Z,37.57
2018-12-24T11:29:16.314Z,37.57
2018-12-24T11:31:48.136Z,37.56
2018-12-24T11:34:19.816Z,37.40
2018-12-24T11:36:51.793Z,37.35
2018-12-24T11:39:23.814Z,37.35
2018-12-24T11:41:55.835Z,37.37
2018-12-24T11:44:27.997Z,37.36
2018-12-24T11:46:59.734Z,37.32
2018-12-24T11:49:32.681Z,37.25
2018-12-24T11:52:07.302Z,37.29
2018-12-24T11:54:39.303Z,37.27
2018-12-24T11:57:11.050Z,37.29
2018-12-24T11:59:43.056Z,37.25
2018-12-24T12:02:14.774Z,37.10
2018-12-24T12:04:46.458Z,37.18
2018-12-24T12:07:18.505Z,37.20
2018-12-24T12:09:50.797Z,37.20
2018-12-24T12:12:22.801Z,37.15
2018-12-24T12:14:54.754Z,37.22
2018-12-24T12:17:25.624Z,36.98
2018-12-24T12:19:57.430Z,37.21
2018-12-24T12:22:29.494Z,37.21
2018-12-24T12:25:01.792Z,36.73
2018-12-24T12:27:33.642Z,36.74
2018-12-24T12:30:06.293Z,36.63
2018-12-24T12:32:38.303Z,36.34
2018-12-24T12:35:10.260Z,36.09
2018-12-24T12:37:42.304Z,35.98
2018-12-24T12:40:13.938Z,35.91
2018-12-24T12:42:46.556Z,35.64
2018-12-24T12:45:18.306Z,35.84
2018-12-24T12:47:50.304Z,35.47
2018-12-24T12:50:22.080Z,35.64
2018-12-24T12:52:54.293Z,35.80
2018-12-24T12:55:26.255Z,35.82
2018-12-24T12:57:57.987Z,35.93
2018-12-24T13:00:29.764Z,35.77
2018-12-24T13:03:00.919Z,35.50
2018-12-24T13:05:32.746Z,36.08
2018-12-24T13:10:45.711Z,35.55
2018-12-24T13:13:17.793Z,35.27
2018-12-24T13:15:50.291Z,35.58
2018-12-24T13:18:21.977Z,35.71
2018-12-24T13:20:53.579Z,35.39
2018-12-24T13:23:25.766Z,36.08
2018-12-24T13:25:58.265Z,36.08
2018-12-24T13:28:30.639Z,35.83
2018-12-24T13:31:02.687Z,36.82
2018-12-24T13:33:33.499Z,36.82
2018-12-24T13:36:05.306Z,36.35
2018-12-24T13:38:37.586Z,36.09
2018-12-24T13:41:09.411Z,35.97
2018-12-24T13:43:41.365Z,35.97
2018-12-24T13:46:15.734Z,36.13
2018-12-24T13:48:47.339Z,35.61
2018-12-24T13:51:19.312Z,35.95
2018-12-24T13:53:50.789Z,35.76
2018-12-24T13:56:22.891Z,35.92
2018-12-24T13:58:54.844Z,36.39
2018-12-24T14:01:26.707Z,36.08
2018-12-24T14:03:57.612Z,36.10
2018-12-24T14:06:30.005Z,36.08
2018-12-24T14:09:01.826Z,36.08
2018-12-24T14:11:33.736Z,36.21
2018-12-24T14:14:04.641Z,36.06
2018-12-24T14:16:36.384Z,36.56
2018-12-24T14:19:08.284Z,36.56
2018-12-24T14:21:40.313Z,36.08
2018-12-24T14:24:12.770Z,36.26
2018-12-24T14:26:43.610Z,36.09
2018-12-24T14:29:14.847Z,36.08
2018-12-24T14:31:46.527Z,36.02
2018-12-24T14:34:19.377Z,35.77
2018-12-24T14:36:51.302Z,35.86
2018-12-24T14:39:23.368Z,35.69
2018-12-24T14:41:55.024Z,35.40
2018-12-24T14:44:26.908Z,35.45
2018-12-24T14:46:58.828Z,35.63
2018-12-24T14:49:30.423Z,35.78
2018-12-24T14:52:02.443Z,35.87
2018-12-24T14:54:34.266Z,36.01
2018-12-24T14:57:10.418Z,36.30
2018-12-24T14:59:42.271Z,36.66
2018-12-24T15:02:14.354Z,36.75
2018-12-24T15:04:46.307Z,24.58
2018-12-24T15:07:18.520Z,15.94
2018-12-24T15:09:50.819Z,12.47
2018-12-24T15:12:22.373Z,10.65
2018-12-24T15:14:54.058Z,9.60
2018-12-24T15:17:25.814Z,8.83
2018-12-24T15:19:57.586Z,8.40
2018-12-24T15:22:28.510Z,8.06
2018-12-24T15:25:00.453Z,8.06
2018-12-24T15:27:32.410Z,8.25
2018-12-24T15:30:04.267Z,8.78
2018-12-24T15:32:36.311Z,9.53
2018-12-24T15:35:08.311Z,10.34
2018-12-24T15:37:40.307Z,11.25
2018-12-24T15:40:12.307Z,12.24
2018-12-24T15:42:44.355Z,13.12
2018-12-24T15:45:16.307Z,14.10
2018-12-24T15:47:49.266Z,15.12
2018-12-24T15:50:21.362Z,16.03
2018-12-24T15:52:53.393Z,16.99
2018-12-24T15:55:25.311Z,17.92
2018-12-24T15:57:57.063Z,18.76
2018-12-24T16:00:28.803Z,19.59
2018-12-24T16:03:00.836Z,20.41
2018-12-24T16:05:32.758Z,21.17
2018-12-24T16:08:03.589Z,21.94
2018-12-24T16:10:34.499Z,22.53
2018-12-24T16:13:06.714Z,23.26
2018-12-24T16:15:37.641Z,23.85
2018-12-24T16:18:08.499Z,25.02
2018-12-24T16:20:40.354Z,25.02
2018-12-24T16:23:12.063Z,25.52
2018-12-24T16:25:43.777Z,26.08
2018-12-24T16:28:17.304Z,26.35
2018-12-24T16:30:49.455Z,26.71
2018-12-24T16:33:21.863Z,27.10
2018-12-24T16:35:53.763Z,27.43
2018-12-24T16:38:24.550Z,27.89
2018-12-24T16:40:56.871Z,28.61
2018-12-24T16:43:28.776Z,28.61
2018-12-24T16:46:00.139Z,28.81
2018-12-24T16:48:31.844Z,29.12
2018-12-24T16:51:03.760Z,29.36
2018-12-24T16:53:40.509Z,29.71
2018-12-24T16:56:08.827Z,29.99
2018-12-24T16:58:40.784Z,30.32
2018-12-24T17:01:12.796Z,30.58
2018-12-24T17:03:44.804Z,30.09
2018-12-24T17:06:16.741Z,27.05
2018-12-24T17:08:48.064Z,23.81
2018-12-24T17:11:19.790Z,20.43
2018-12-24T17:13:51.377Z,18.05
2018-12-24T17:16:23.067Z,16.49
2018-12-24T17:18:54.812Z,15.97
2018-12-24T17:21:26.399Z,16.19
2018-12-24T17:23:58.307Z,16.81
2018-12-24T17:26:30.626Z,17.57
2018-12-24T17:29:01.259Z,18.34
2018-12-24T17:31:32.910Z,19.23
2018-12-24T17:34:04.808Z,19.99
2018-12-24T17:36:36.787Z,20.97
2018-12-24T17:39:11.378Z,21.77
2018-12-24T17:41:43.307Z,22.49
2018-12-24T17:44:15.313Z,23.27
2018-12-24T17:46:47.308Z,23.88
2018-12-24T17:49:19.058Z,24.61
2018-12-24T17:51:50.773Z,25.22
2018-12-24T17:54:21.461Z,25.67
2018-12-24T17:56:53.302Z,26.03
2018-12-24T17:59:25.012Z,26.46
2018-12-24T18:01:57.306Z,26.97
2018-12-24T18:04:29.609Z,27.40
2018-12-24T18:07:01.794Z,28.19
2018-12-24T18:09:33.572Z,28.19
2018-12-24T18:12:05.486Z,28.96
2018-12-24T18:14:37.438Z,28.96
2018-12-24T18:17:09.439Z,29.24
2018-12-24T18:19:41.452Z,29.66
2018-12-24T18:22:13.262Z,29.99
2018-12-24T18:24:45.021Z,30.25
2018-12-24T18:27:16.795Z,30.52
2018-12-24T18:29:48.746Z,30.79
2018-12-24T18:32:19.714Z,30.96
2018-12-24T18:34:50.488Z,31.18
2018-12-24T18:37:22.338Z,31.34
2018-12-24T18:39:54.407Z,30.98
2018-12-24T18:42:26.818Z,27.48
2018-12-24T18:44:58.412Z,27.48
2018-12-24T18:47:33.285Z,26.20
2018-12-24T18:50:03.830Z,23.57
2018-12-24T18:52:35.816Z,19.81
2018-12-24T18:55:07.791Z,16.81
2018-12-24T18:57:39.978Z,15.46
2018-12-24T19:00:12.782Z,15.34
2018-12-24T19:02:44.523Z,15.77
2018-12-24T19:05:16.567Z,16.41
2018-12-24T19:07:48.309Z,18.08
2018-12-24T19:10:20.031Z,18.08
2018-12-24T19:12:52.011Z,18.94
2018-12-24T19:15:23.815Z,19.76
2018-12-24T19:17:55.407Z,20.61
2018-12-24T19:20:27.776Z,21.38
2018-12-24T19:22:59.473Z,22.15
2018-12-24T19:25:31.270Z,22.83
2018-12-24T19:28:03.311Z,23.60
2018-12-24T19:30:35.316Z,24.16
2018-12-24T19:33:07.298Z,24.89
2018-12-24T19:35:39.730Z,25.47
2018-12-24T19:38:10.466Z,26.11
2018-12-24T19:40:42.299Z,26.58
2018-12-24T19:43:13.995Z,26.88
2018-12-24T19:45:45.746Z,27.12
2018-12-24T19:48:17.864Z,27.49
2018-12-24T19:50:49.813Z,27.86
2018-12-24T19:53:21.631Z,28.25
2018-12-24T19:55:54.996Z,28.91
2018-12-24T19:58:27.263Z,28.91
2018-12-24T20:00:59.342Z,29.30
2018-12-24T20:03:31.325Z,29.47
2018-12-24T20:06:03.382Z,29.68
2018-12-24T20:08:35.435Z,29.84
2018-12-24T20:11:07.350Z,30.17
2018-12-24T20:13:39.457Z,30.40
2018-12-24T20:16:11.322Z,30.65
2018-12-24T20:18:43.318Z,30.93
2018-12-24T20:21:15.398Z,31.14
2018-12-24T20:23:47.315Z,31.41
2018-12-24T20:26:19.301Z,31.73
2018-12-24T20:28:51.454Z,31.88
2018-12-24T20:31:23.286Z,32.13
2018-12-24T20:33:55.064Z,32.31
2018-12-24T20:36:26.796Z,32.52
2018-12-24T20:38:58.774Z,32.77
2018-12-24T20:41:30.407Z,32.90
2018-12-24T20:44:02.689Z,33.09
2018-12-24T20:46:33.695Z,33.27
2018-12-24T20:49:04.583Z,33.42
2018-12-24T20:51:36.386Z,33.67
2018-12-24T20:54:08.311Z,33.67
2018-12-24T20:56:40.389Z,33.87
2018-12-24T20:59:12.988Z,34.00
2018-12-24T21:01:44.784Z,34.14
2018-12-24T21:04:16.435Z,34.25
2018-12-24T21:06:48.310Z,34.35
2018-12-24T21:09:19.989Z,34.53
2018-12-24T21:11:51.884Z,34.72
2018-12-24T21:14:23.880Z,34.80
2018-12-24T21:16:55.935Z,34.92
2018-12-24T21:19:28.796Z,35.00
2018-12-24T21:22:00.656Z,35.08
2018-12-24T21:24:31.478Z,35.18
2018-12-24T21:27:03.398Z,35.20
2018-12-24T21:29:35.297Z,35.32
2018-12-24T21:32:07.602Z,35.40
2018-12-24T21:34:39.433Z,35.53
2018-12-24T21:37:11.306Z,35.53
2018-12-24T21:39:42.855Z,35.61
2018-12-24T21:42:14.753Z,35.68
2018-12-24T21:44:46.807Z,35.74
2018-12-24T21:47:19.659Z,35.75
2018-12-24T21:49:50.902Z,35.82
2018-12-24T21:52:31.122Z,35.86
2018-12-24T21:57:46.309Z,35.80
2018-12-24T22:00:18.267Z,35.85
2018-12-24T22:02:50.296Z,35.96
2018-12-24T22:05:23.553Z,35.91
2018-12-24T22:07:55.287Z,35.92
2018-12-24T22:10:27.831Z,35.83
2018-12-24T22:12:59.726Z,35.91
2018-12-24T22:15:30.464Z,35.95
2018-12-24T22:18:02.321Z,35.96
2018-12-24T22:20:34.057Z,35.94
2018-12-24T22:23:05.797Z,35.98
2018-12-24T22:25:37.774Z,36.03
2018-12-24T22:28:08.499Z,36.02
2018-12-24T22:30:40.307Z,36.05
2018-12-24T22:33:12.301Z,36.09
2018-12-24T22:35:44.261Z,36.09
2018-12-24T22:38:16.297Z,36.18
2018-12-24T22:40:48.312Z,36.19
2018-12-24T22:43:20.299Z,36.15
2018-12-24T22:45:52.936Z,36.32
2018-12-24T22:48:24.992Z,36.37
2018-12-24T22:50:56.714Z,36.23
2018-12-24T22:53:27.893Z,36.30
2018-12-24T22:55:59.780Z,36.42
2018-12-24T22:58:30.667Z,36.51
2018-12-24T23:01:02.253Z,36.43
2018-12-24T23:03:35.303Z,36.54
2018-12-24T23:06:07.409Z,36.60
2018-12-24T23:08:39.299Z,36.57
2018-12-24T23:11:10.850Z,36.44
2018-12-24T23:13:43.754Z,36.56
2018-12-24T23:16:14.628Z,36.34
2018-12-24T23:18:49.594Z,36.49
2018-12-24T23:21:20.290Z,36.49
2018-12-24T23:23:52.293Z,36.36
2018-12-24T23:26:24.005Z,36.54
2018-12-24T23:28:56.287Z,36.53
2018-12-24T23:31:28.278Z,36.45
2018-12-24T23:35:18.829Z,36.38
2018-12-24T23:37:50.754Z,36.45
2018-12-24T23:40:23.308Z,36.34
2018-12-24T23:42:55.328Z,36.52
2018-12-24T23:45:27.746Z,36.65
2018-12-24T23:47:59.611Z,36.54
2018-12-24T23:50:31.427Z,36.54
2018-12-24T23:53:03.343Z,36.55
2018-12-24T23:55:35.397Z,36.44
2018-12-24T23:58:07.294Z,36.48
